Terminal Aerodrome Forecast
Issued by NWS Goodland, KS

Home | Current Version | Previous Version | Text Only | Print | Product List | Glossary On
Versions: 1 2 3 4 5 6 7 8 9 10 11 12 13 14 15 16 17 18 19 20 21 22 23 24 25 26 27
000
FTUS43 KGLD 252329
TAFGLD
TAF
KGLD 252329Z 2600/2624 10005KT P6SM VCTS SCT080CB
     FM260200 05007KT P6SM SCT250
     FM260900 03006KT P6SM SCT010 BKN030
     FM261100 02007KT 3SM BR SCT003 BKN010
     FM261400 02011KT P6SM BKN030
     FM261700 05012G19KT P6SM VCSH SCT070 BKN150=

USA.gov is the U.S. government's official web portal to all federal, state and local government web resources and services.